sensor_id;sensor_type;location;lat;lon;timestamp;pressure;altitude;pressure_sealevel;temperature;humidity
38400;BME280;24180;42.676;23.320;2023-04-10T00:00:05;94845.66;;;7.42;100.00
38400;BME280;24180;42.676;23.320;2023-04-10T00:02:32;94874.19;;;7.62;100.00
38400;BME280;24180;42.676;23.320;2023-04-10T00:04:58;94874.66;;;7.56;100.00
38400;BME280;24180;42.676;23.320;2023-04-10T00:07:25;94857.06;;;7.61;100.00
38400;BME280;24180;42.676;23.320;2023-04-10T00:09:50;94860.94;;;7.66;100.00
38400;BME280;24180;42.676;23.320;2023-04-10T00:12:16;94862.22;;;7.61;100.00
38400;BME280;24180;42.676;23.320;2023-04-10T00:14:42;94860.00;;;7.56;100.00
38400;BME280;24180;42.676;23.320;2023-04-10T00:17:07;94838.88;;;7.41;100.00
38400;BME280;24180;42.676;23.320;2023-04-10T00:19:33;94847.84;;;7.58;100.00
38400;BME280;24180;42.676;23.320;2023-04-10T00:21:58;94853.88;;;7.68;100.00
38400;BME280;24180;42.676;23.320;2023-04-10T00:24:24;94830.53;;;7.49;100.00
38400;BME280;24180;42.676;23.320;2023-04-10T00:26:49;94816.81;;;7.48;100.00
38400;BME280;24180;42.676;23.320;2023-04-10T00:29:15;94847.69;;;7.60;100.00
38400;BME280;24180;42.676;23.320;2023-04-10T00:31:40;94841.00;;;7.68;100.00
38400;BME280;24180;42.676;23.320;2023-04-10T00:34:06;94841.91;;;7.67;100.00
38400;BME280;24180;42.676;23.320;2023-04-10T00:36:31;94849.44;;;7.59;100.00
38400;BME280;24180;42.676;23.320;2023-04-10T00:38:57;94843.06;;;7.53;100.00
38400;BME280;24180;42.676;23.320;2023-04-10T00:41:24;94820.03;;;7.41;100.00
38400;BME280;24180;42.676;23.320;2023-04-10T00:43:56;94817.09;;;7.34;100.00
38400;BME280;24180;42.676;23.320;2023-04-10T00:46:25;94813.84;;;7.32;100.00
38400;BME280;24180;42.676;23.320;2023-04-10T00:48:53;94852.16;;;7.58;100.00
38400;BME280;24180;42.676;23.320;2023-04-10T00:51:19;94818.28;;;7.41;100.00
38400;BME280;24180;42.676;23.320;2023-04-10T00:53:49;94791.47;;;7.33;100.00
38400;BME280;24180;42.676;23.320;2023-04-10T00:56:22;94844.88;;;7.63;100.00
38400;BME280;24180;42.676;23.320;2023-04-10T00:58:48;94812.75;;;7.46;100.00
38400;BME280;24180;42.676;23.320;2023-04-10T01:01:13;94836.47;;;7.61;100.00
38400;BME280;24180;42.676;23.320;2023-04-10T01:03:39;94818.13;;;7.43;100.00
38400;BME280;24180;42.676;23.320;2023-04-10T01:09:31;94839.69;;;7.74;100.00
38400;BME280;24180;42.676;23.320;2023-04-10T01:17:35;94832.38;;;7.79;100.00
38400;BME280;24180;42.676;23.320;2023-04-10T01:26:08;94840.31;;;7.87;100.00
38400;BME280;24180;42.676;23.320;2023-04-10T01:28:56;94842.19;;;7.85;100.00
38400;BME280;24180;42.676;23.320;2023-04-10T01:31:57;94838.91;;;7.83;100.00
38400;BME280;24180;42.676;23.320;2023-04-10T01:34:44;94832.53;;;7.77;100.00
38400;BME280;24180;42.676;23.320;2023-04-10T01:37:23;94797.50;;;7.54;100.00
38400;BME280;24180;42.676;23.320;2023-04-10T01:40:03;94819.75;;;7.76;100.00
38400;BME280;24180;42.676;23.320;2023-04-10T01:42:38;94773.31;;;7.34;100.00
38400;BME280;24180;42.676;23.320;2023-04-10T01:45:06;94830.00;;;7.66;100.00
38400;BME280;24180;42.676;23.320;2023-04-10T01:47:33;94808.59;;;7.54;100.00
38400;BME280;24180;42.676;23.320;2023-04-10T01:49:59;94829.38;;;7.74;100.00
38400;BME280;24180;42.676;23.320;2023-04-10T01:52:26;94822.69;;;7.71;100.00
38400;BME280;24180;42.676;23.320;2023-04-10T01:54:52;94806.09;;;7.64;100.00
38400;BME280;24180;42.676;23.320;2023-04-10T01:57:19;94802.34;;;7.68;100.00
38400;BME280;24180;42.676;23.320;2023-04-10T01:59:45;94807.22;;;7.71;100.00
38400;BME280;24180;42.676;23.320;2023-04-10T02:02:10;94833.34;;;7.78;100.00
38400;BME280;24180;42.676;23.320;2023-04-10T02:04:36;94818.81;;;7.77;100.00
38400;BME280;24180;42.676;23.320;2023-04-10T02:07:13;94812.28;;;7.73;100.00
38400;BME280;24180;42.676;23.320;2023-04-10T02:09:57;94814.41;;;7.68;100.00
38400;BME280;24180;42.676;23.320;2023-04-10T02:12:31;94792.91;;;7.58;100.00
38400;BME280;24180;42.676;23.320;2023-04-10T02:15:01;94816.03;;;7.69;100.00
38400;BME280;24180;42.676;23.320;2023-04-10T02:17:30;94785.28;;;7.56;100.00
38400;BME280;24180;42.676;23.320;2023-04-10T02:19:57;94794.22;;;7.73;100.00
38400;BME280;24180;42.676;23.320;2023-04-10T02:22:23;94784.66;;;7.64;100.00
38400;BME280;24180;42.676;23.320;2023-04-10T02:24:50;94798.56;;;7.72;100.00
38400;BME280;24180;42.676;23.320;2023-04-10T02:27:26;94793.78;;;7.68;100.00
38400;BME280;24180;42.676;23.320;2023-04-10T02:29:51;94767.06;;;7.48;100.00
38400;BME280;24180;42.676;23.320;2023-04-10T02:32:17;94741.16;;;7.29;100.00
38400;BME280;24180;42.676;23.320;2023-04-10T02:34:43;94772.09;;;7.49;100.00
38400;BME280;24180;42.676;23.320;2023-04-10T02:37:08;94780.03;;;7.58;100.00
38400;BME280;24180;42.676;23.320;2023-04-10T02:39:34;94784.34;;;7.57;100.00
38400;BME280;24180;42.676;23.320;2023-04-10T02:42:01;94762.28;;;7.43;100.00
38400;BME280;24180;42.676;23.320;2023-04-10T02:44:26;94785.19;;;7.46;100.00
38400;BME280;24180;42.676;23.320;2023-04-10T02:46:51;94781.44;;;7.50;100.00
38400;BME280;24180;42.676;23.320;2023-04-10T02:49:17;94768.75;;;7.38;100.00
38400;BME280;24180;42.676;23.320;2023-04-10T02:51:42;94749.00;;;7.27;100.00
38400;BME280;24180;42.676;23.320;2023-04-10T02:54:08;94747.75;;;7.22;100.00
38400;BME280;24180;42.676;23.320;2023-04-10T02:56:33;94743.16;;;7.25;100.00
38400;BME280;24180;42.676;23.320;2023-04-10T02:58:59;94765.16;;;7.29;100.00
38400;BME280;24180;42.676;23.320;2023-04-10T03:01:24;94763.53;;;7.28;100.00
38400;BME280;24180;42.676;23.320;2023-04-10T03:03:50;94742.63;;;7.11;100.00
38400;BME280;24180;42.676;23.320;2023-04-10T03:06:16;94735.72;;;7.11;100.00
38400;BME280;24180;42.676;23.320;2023-04-10T03:08:41;94775.69;;;7.26;100.00
38400;BME280;24180;42.676;23.320;2023-04-10T03:11:07;94765.78;;;7.22;100.00
38400;BME280;24180;42.676;23.320;2023-04-10T03:13:33;94757.72;;;7.15;100.00
38400;BME280;24180;42.676;23.320;2023-04-10T03:15:58;94771.69;;;7.01;100.00
38400;BME280;24180;42.676;23.320;2023-04-10T03:18:24;94745.06;;;6.80;100.00
38400;BME280;24180;42.676;23.320;2023-04-10T03:20:50;94762.97;;;6.82;100.00
38400;BME280;24180;42.676;23.320;2023-04-10T03:23:15;94771.28;;;6.74;100.00
38400;BME280;24180;42.676;23.320;2023-04-10T03:25:41;94756.00;;;6.62;100.00
38400;BME280;24180;42.676;23.320;2023-04-10T03:28:07;94746.16;;;6.55;100.00
38400;BME280;24180;42.676;23.320;2023-04-10T03:30:33;94773.41;;;6.58;100.00
38400;BME280;24180;42.676;23.320;2023-04-10T03:33:01;94776.94;;;6.57;100.00
38400;BME280;24180;42.676;23.320;2023-04-10T03:35:26;94754.75;;;6.34;100.00
38400;BME280;24180;42.676;23.320;2023-04-10T03:37:52;94779.28;;;6.49;100.00
38400;BME280;24180;42.676;23.320;2023-04-10T03:40:17;94752.50;;;6.18;100.00
38400;BME280;24180;42.676;23.320;2023-04-10T03:42:43;94748.44;;;6.16;100.00
38400;BME280;24180;42.676;23.320;2023-04-10T03:45:09;94762.56;;;6.10;100.00
38400;BME280;24180;42.676;23.320;2023-04-10T03:47:34;94791.31;;;6.26;100.00
38400;BME280;24180;42.676;23.320;2023-04-10T03:50:00;94784.56;;;6.25;100.00
38400;BME280;24180;42.676;23.320;2023-04-10T03:52:26;94793.88;;;6.26;100.00
38400;BME280;24180;42.676;23.320;2023-04-10T03:54:52;94753.69;;;6.03;100.00
38400;BME280;24180;42.676;23.320;2023-04-10T03:57:18;94791.44;;;6.25;100.00
38400;BME280;24180;42.676;23.320;2023-04-10T03:59:48;94793.78;;;6.17;100.00
38400;BME280;24180;42.676;23.320;2023-04-10T04:02:13;94764.09;;;6.01;100.00
38400;BME280;24180;42.676;23.320;2023-04-10T04:04:39;94762.31;;;6.02;100.00
38400;BME280;24180;42.676;23.320;2023-04-10T04:07:05;94794.94;;;6.13;100.00
38400;BME280;24180;42.676;23.320;2023-04-10T04:09:30;94782.44;;;6.08;100.00
38400;BME280;24180;42.676;23.320;2023-04-10T04:11:56;94773.91;;;6.07;100.00
38400;BME280;24180;42.676;23.320;2023-04-10T04:14:22;94796.59;;;6.25;100.00
38400;BME280;24180;42.676;23.320;2023-04-10T04:16:48;94779.75;;;6.09;100.00
38400;BME280;24180;42.676;23.320;2023-04-10T04:19:13;94802.06;;;6.31;100.00
38400;BME280;24180;42.676;23.320;2023-04-10T04:21:39;94771.13;;;6.22;100.00
38400;BME280;24180;42.676;23.320;2023-04-10T04:24:05;94769.69;;;6.29;100.00
38400;BME280;24180;42.676;23.320;2023-04-10T04:26:30;94794.56;;;6.50;100.00
38400;BME280;24180;42.676;23.320;2023-04-10T04:28:56;94769.81;;;6.38;100.00
38400;BME280;24180;42.676;23.320;2023-04-10T04:31:21;94800.69;;;6.49;100.00
38400;BME280;24180;42.676;23.320;2023-04-10T04:33:48;94795.88;;;6.56;100.00
38400;BME280;24180;42.676;23.320;2023-04-10T04:36:13;94802.88;;;6.76;100.00
38400;BME280;24180;42.676;23.320;2023-04-10T04:38:39;94785.91;;;6.63;100.00
38400;BME280;24180;42.676;23.320;2023-04-10T04:41:05;94793.97;;;6.80;100.00
38400;BME280;24180;42.676;23.320;2023-04-10T04:43:30;94808.69;;;6.89;100.00
38400;BME280;24180;42.676;23.320;2023-04-10T04:45:56;94781.72;;;6.73;100.00
38400;BME280;24180;42.676;23.320;2023-04-10T04:48:21;94809.75;;;6.87;100.00
38400;BME280;24180;42.676;23.320;2023-04-10T04:50:47;94783.56;;;6.71;100.00
38400;BME280;24180;42.676;23.320;2023-04-10T04:53:12;94779.16;;;6.62;100.00
38400;BME280;24180;42.676;23.320;2023-04-10T04:55:38;94807.44;;;6.73;100.00
38400;BME280;24180;42.676;23.320;2023-04-10T04:58:03;94818.53;;;6.84;100.00
38400;BME280;24180;42.676;23.320;2023-04-10T05:00:29;94820.19;;;6.85;100.00
38400;BME280;24180;42.676;23.320;2023-04-10T05:02:54;94824.75;;;6.82;100.00
38400;BME280;24180;42.676;23.320;2023-04-10T05:05:20;94799.56;;;6.74;100.00
38400;BME280;24180;42.676;23.320;2023-04-10T05:07:45;94813.63;;;6.81;100.00
38400;BME280;24180;42.676;23.320;2023-04-10T05:10:10;94823.31;;;6.89;100.00
38400;BME280;24180;42.676;23.320;2023-04-10T05:12:36;94824.38;;;6.97;100.00
38400;BME280;24180;42.676;23.320;2023-04-10T05:15:02;94826.69;;;7.00;100.00
38400;BME280;24180;42.676;23.320;2023-04-10T05:17:27;94821.78;;;6.97;100.00
38400;BME280;24180;42.676;23.320;2023-04-10T05:19:53;94834.53;;;7.10;100.00
38400;BME280;24180;42.676;23.320;2023-04-10T05:22:18;94794.97;;;7.00;100.00
38400;BME280;24180;42.676;23.320;2023-04-10T05:24:43;94802.03;;;6.98;100.00
38400;BME280;24180;42.676;23.320;2023-04-10T05:27:09;94795.31;;;7.06;100.00
38400;BME280;24180;42.676;23.320;2023-04-10T05:29:34;94823.22;;;7.22;100.00
38400;BME280;24180;42.676;23.320;2023-04-10T05:32:00;94826.50;;;7.24;100.00
38400;BME280;24180;42.676;23.320;2023-04-10T05:34:25;94805.44;;;7.19;100.00
38400;BME280;24180;42.676;23.320;2023-04-10T05:36:51;94795.44;;;7.05;100.00
38400;BME280;24180;42.676;23.320;2023-04-10T05:39:16;94826.00;;;7.41;100.00
38400;BME280;24180;42.676;23.320;2023-04-10T05:41:42;94826.19;;;7.49;100.00
38400;BME280;24180;42.676;23.320;2023-04-10T05:44:07;94829.47;;;7.51;100.00
38400;BME280;24180;42.676;23.320;2023-04-10T05:46:32;94841.63;;;7.61;100.00
38400;BME280;24180;42.676;23.320;2023-04-10T05:48:58;94838.88;;;7.73;100.00
38400;BME280;24180;42.676;23.320;2023-04-10T05:51:24;94832.78;;;7.74;100.00
38400;BME280;24180;42.676;23.320;2023-04-10T05:53:50;94795.13;;;7.62;100.00
38400;BME280;24180;42.676;23.320;2023-04-10T05:56:16;94805.41;;;7.83;100.00
38400;BME280;24180;42.676;23.320;2023-04-10T05:58:41;94821.94;;;7.80;100.00
38400;BME280;24180;42.676;23.320;2023-04-10T06:01:07;94834.78;;;7.91;100.00
38400;BME280;24180;42.676;23.320;2023-04-10T06:03:32;94818.00;;;7.97;100.00
38400;BME280;24180;42.676;23.320;2023-04-10T06:05:59;94846.94;;;8.21;100.00
38400;BME280;24180;42.676;23.320;2023-04-10T06:08:25;94840.31;;;8.28;100.00
38400;BME280;24180;42.676;23.320;2023-04-10T06:10:50;94839.13;;;8.32;100.00
38400;BME280;24180;42.676;23.320;2023-04-10T06:13:16;94845.47;;;8.49;100.00
38400;BME280;24180;42.676;23.320;2023-04-10T06:15:41;94828.34;;;8.48;100.00
38400;BME280;24180;42.676;23.320;2023-04-10T06:18:07;94829.97;;;8.79;100.00
38400;BME280;24180;42.676;23.320;2023-04-10T06:20:33;94840.50;;;8.97;100.00
38400;BME280;24180;42.676;23.320;2023-04-10T06:22:58;94836.97;;;9.08;100.00
38400;BME280;24180;42.676;23.320;2023-04-10T06:25:24;94838.66;;;9.18;100.00
38400;BME280;24180;42.676;23.320;2023-04-10T06:27:49;94817.00;;;9.19;100.00
38400;BME280;24180;42.676;23.320;2023-04-10T06:30:15;94803.28;;;9.28;100.00
38400;BME280;24180;42.676;23.320;2023-04-10T06:32:40;94816.06;;;9.20;100.00
38400;BME280;24180;42.676;23.320;2023-04-10T06:35:06;94826.56;;;9.38;100.00
38400;BME280;24180;42.676;23.320;2023-04-10T06:37:32;94787.78;;;9.19;100.00
38400;BME280;24180;42.676;23.320;2023-04-10T06:40:07;94808.63;;;9.36;100.00
38400;BME280;24180;42.676;23.320;2023-04-10T06:42:34;94832.44;;;9.78;100.00
38400;BME280;24180;42.676;23.320;2023-04-10T06:44:59;94830.50;;;10.09;100.00
38400;BME280;24180;42.676;23.320;2023-04-10T06:47:25;94846.97;;;10.27;100.00
38400;BME280;24180;42.676;23.320;2023-04-10T06:49:51;94817.16;;;10.04;100.00
38400;BME280;24180;42.676;23.320;2023-04-10T06:52:17;94824.13;;;10.23;100.00
38400;BME280;24180;42.676;23.320;2023-04-10T06:54:42;94820.97;;;10.19;100.00
38400;BME280;24180;42.676;23.320;2023-04-10T06:57:08;94851.41;;;10.54;100.00
38400;BME280;24180;42.676;23.320;2023-04-10T06:59:33;94850.31;;;10.57;100.00
38400;BME280;24180;42.676;23.320;2023-04-10T07:02:03;94827.69;;;10.59;100.00
38400;BME280;24180;42.676;23.320;2023-04-10T07:04:28;94851.38;;;10.64;100.00
38400;BME280;24180;42.676;23.320;2023-04-10T07:06:54;94842.09;;;10.71;100.00
38400;BME280;24180;42.676;23.320;2023-04-10T07:09:19;94845.16;;;10.84;100.00
38400;BME280;24180;42.676;23.320;2023-04-10T07:11:45;94841.81;;;10.74;100.00
38400;BME280;24180;42.676;23.320;2023-04-10T07:14:10;94830.84;;;10.90;100.00
38400;BME280;24180;42.676;23.320;2023-04-10T07:16:36;94844.50;;;11.09;100.00
38400;BME280;24180;42.676;23.320;2023-04-10T07:19:02;94845.63;;;10.70;100.00
38400;BME280;24180;42.676;23.320;2023-04-10T07:21:27;94846.78;;;10.58;100.00
38400;BME280;24180;42.676;23.320;2023-04-10T07:23:53;94848.06;;;10.71;100.00
38400;BME280;24180;42.676;23.320;2023-04-10T07:26:18;94843.34;;;10.67;100.00
38400;BME280;24180;42.676;23.320;2023-04-10T07:28:44;94837.53;;;10.46;100.00
38400;BME280;24180;42.676;23.320;2023-04-10T07:31:10;94855.72;;;10.63;100.00
38400;BME280;24180;42.676;23.320;2023-04-10T07:33:37;94857.84;;;10.41;100.00
38400;BME280;24180;42.676;23.320;2023-04-10T07:36:03;94834.72;;;10.10;100.00
38400;BME280;24180;42.676;23.320;2023-04-10T07:38:30;94855.84;;;10.35;100.00
38400;BME280;24180;42.676;23.320;2023-04-10T07:40:59;94829.63;;;10.47;100.00
38400;BME280;24180;42.676;23.320;2023-04-10T07:43:25;94852.16;;;10.74;100.00
38400;BME280;24180;42.676;23.320;2023-04-10T07:45:51;94841.53;;;11.04;100.00
38400;BME280;24180;42.676;23.320;2023-04-10T07:48:17;94826.31;;;11.19;100.00
38400;BME280;24180;42.676;23.320;2023-04-10T07:50:42;94855.03;;;11.53;100.00
38400;BME280;24180;42.676;23.320;2023-04-10T07:53:07;94848.03;;;11.36;100.00
38400;BME280;24180;42.676;23.320;2023-04-10T07:55:41;94843.25;;;11.58;100.00
38400;BME280;24180;42.676;23.320;2023-04-10T07:58:07;94825.56;;;11.89;100.00
38400;BME280;24180;42.676;23.320;2023-04-10T08:00:33;94826.38;;;12.33;100.00
38400;BME280;24180;42.676;23.320;2023-04-10T08:02:59;94854.66;;;12.62;100.00
38400;BME280;24180;42.676;23.320;2023-04-10T08:05:25;94846.19;;;12.60;100.00
38400;BME280;24180;42.676;23.320;2023-04-10T08:07:50;94845.34;;;12.51;100.00
38400;BME280;24180;42.676;23.320;2023-04-10T08:10:16;94844.56;;;12.59;100.00
38400;BME280;24180;42.676;23.320;2023-04-10T08:12:41;94826.00;;;12.28;100.00
38400;BME280;24180;42.676;23.320;2023-04-10T08:15:07;94845.94;;;12.19;100.00
38400;BME280;24180;42.676;23.320;2023-04-10T08:17:32;94821.13;;;11.99;100.00
38400;BME280;24180;42.676;23.320;2023-04-10T08:19:58;94826.09;;;11.93;100.00
38400;BME280;24180;42.676;23.320;2023-04-10T08:22:25;94815.81;;;11.83;100.00
38400;BME280;24180;42.676;23.320;2023-04-10T08:24:50;94846.03;;;11.92;100.00
38400;BME280;24180;42.676;23.320;2023-04-10T08:27:15;94839.16;;;11.83;100.00
38400;BME280;24180;42.676;23.320;2023-04-10T08:29:41;94816.81;;;11.90;100.00
38400;BME280;24180;42.676;23.320;2023-04-10T08:32:07;94823.41;;;12.02;100.00
38400;BME280;24180;42.676;23.320;2023-04-10T08:34:32;94850.94;;;11.95;100.00
38400;BME280;24180;42.676;23.320;2023-04-10T08:36:58;94845.50;;;12.06;100.00
38400;BME280;24180;42.676;23.320;2023-04-10T08:39:23;94829.19;;;11.96;100.00
38400;BME280;24180;42.676;23.320;2023-04-10T08:41:49;94848.91;;;12.07;100.00
38400;BME280;24180;42.676;23.320;2023-04-10T08:44:15;94819.47;;;11.98;100.00
38400;BME280;24180;42.676;23.320;2023-04-10T08:46:42;94831.81;;;12.48;100.00
38400;BME280;24180;42.676;23.320;2023-04-10T08:49:10;94814.88;;;12.61;100.00
38400;BME280;24180;42.676;23.320;2023-04-10T08:51:48;94777.31;;;12.22;100.00
38400;BME280;24180;42.676;23.320;2023-04-10T08:54:24;94823.25;;;12.47;100.00
38400;BME280;24180;42.676;23.320;2023-04-10T08:56:53;94831.84;;;12.22;100.00
38400;BME280;24180;42.676;23.320;2023-04-10T08:59:19;94811.75;;;12.06;100.00
38400;BME280;24180;42.676;23.320;2023-04-10T09:01:45;94812.38;;;12.52;100.00
38400;BME280;24180;42.676;23.320;2023-04-10T09:04:13;94811.56;;;12.26;100.00
38400;BME280;24180;42.676;23.320;2023-04-10T09:06:40;94826.63;;;12.22;100.00
38400;BME280;24180;42.676;23.320;2023-04-10T09:09:06;94830.22;;;12.47;100.00
38400;BME280;24180;42.676;23.320;2023-04-10T09:14:20;94811.19;;;12.72;100.00
38400;BME280;24180;42.676;23.320;2023-04-10T09:16:46;94827.66;;;13.15;100.00
38400;BME280;24180;42.676;23.320;2023-04-10T09:19:11;94819.72;;;13.32;99.86
38400;BME280;24180;42.676;23.320;2023-04-10T09:21:37;94810.50;;;13.38;98.71
38400;BME280;24180;42.676;23.320;2023-04-10T09:24:02;94814.38;;;13.26;96.97
38400;BME280;24180;42.676;23.320;2023-04-10T09:26:31;94812.25;;;13.29;92.51
38400;BME280;24180;42.676;23.320;2023-04-10T09:31:36;94821.66;;;13.22;91.64
38400;BME280;24180;42.676;23.320;2023-04-10T09:34:16;94823.44;;;13.22;91.51
38400;BME280;24180;42.676;23.320;2023-04-10T09:36:43;94811.59;;;13.19;93.67
38400;BME280;24180;42.676;23.320;2023-04-10T09:39:10;94806.72;;;13.32;93.84
38400;BME280;24180;42.676;23.320;2023-04-10T09:41:53;94808.38;;;13.41;91.11
38400;BME280;24180;42.676;23.320;2023-04-10T09:44:35;94805.53;;;13.10;91.58
38400;BME280;24180;42.676;23.320;2023-04-10T09:49:50;94810.47;;;13.30;91.29
38400;BME280;24180;42.676;23.320;2023-04-10T09:52:26;94818.97;;;13.40;90.85
38400;BME280;24180;42.676;23.320;2023-04-10T09:55:02;94772.34;;;13.04;92.81
38400;BME280;24180;42.676;23.320;2023-04-10T09:57:30;94809.50;;;13.31;93.10
38400;BME280;24180;42.676;23.320;2023-04-10T09:59:58;94812.66;;;12.75;90.56
38400;BME280;24180;42.676;23.320;2023-04-10T10:02:27;94798.09;;;12.56;92.76
38400;BME280;24180;42.676;23.320;2023-04-10T10:04:53;94788.09;;;13.03;93.98
38400;BME280;24180;42.676;23.320;2023-04-10T10:07:21;94801.78;;;14.20;85.51
38400;BME280;24180;42.676;23.320;2023-04-10T10:09:48;94782.06;;;14.33;78.52
38400;BME280;24180;42.676;23.320;2023-04-10T10:12:44;94798.53;;;14.10;80.08
38400;BME280;24180;42.676;23.320;2023-04-10T10:15:53;94795.28;;;14.16;79.87
38400;BME280;24180;42.676;23.320;2023-04-10T10:21:03;94788.25;;;14.24;73.34
38400;BME280;24180;42.676;23.320;2023-04-10T10:23:30;94783.38;;;14.21;78.26
38400;BME280;24180;42.676;23.320;2023-04-10T10:25:57;94758.50;;;14.02;76.38
38400;BME280;24180;42.676;23.320;2023-04-10T10:28:23;94755.88;;;14.11;78.48
38400;BME280;24180;42.676;23.320;2023-04-10T10:30:50;94771.84;;;13.91;80.44
38400;BME280;24180;42.676;23.320;2023-04-10T10:33:16;94765.00;;;13.58;78.70
38400;BME280;24180;42.676;23.320;2023-04-10T10:35:42;94750.19;;;13.42;81.27
38400;BME280;24180;42.676;23.320;2023-04-10T10:38:08;94770.06;;;13.68;83.17
38400;BME280;24180;42.676;23.320;2023-04-10T10:40:41;94735.25;;;14.72;74.67
38400;BME280;24180;42.676;23.320;2023-04-10T10:43:32;94731.97;;;15.09;73.78
38400;BME280;24180;42.676;23.320;2023-04-10T10:46:03;94735.97;;;14.89;70.19
38400;BME280;24180;42.676;23.320;2023-04-10T10:48:30;94759.00;;;14.77;75.33
38400;BME280;24180;42.676;23.320;2023-04-10T10:50:57;94750.53;;;14.83;73.96
38400;BME280;24180;42.676;23.320;2023-04-10T10:58:46;94755.91;;;13.94;79.86
38400;BME280;24180;42.676;23.320;2023-04-10T11:01:12;94746.66;;;13.92;82.33
38400;BME280;24180;42.676;23.320;2023-04-10T11:03:38;94716.69;;;13.96;80.59
38400;BME280;24180;42.676;23.320;2023-04-10T11:06:06;94740.50;;;14.64;76.33
38400;BME280;24180;42.676;23.320;2023-04-10T11:11:05;94700.22;;;17.99;57.15
38400;BME280;24180;42.676;23.320;2023-04-10T11:13:39;94719.25;;;19.78;48.40
38400;BME280;24180;42.676;23.320;2023-04-10T11:16:07;94706.44;;;21.37;43.33
38400;BME280;24180;42.676;23.320;2023-04-10T11:29:01;94677.81;;;17.68;47.11
38400;BME280;24180;42.676;23.320;2023-04-10T11:31:28;94715.59;;;16.58;52.35
38400;BME280;24180;42.676;23.320;2023-04-10T11:36:23;94636.69;;;14.98;64.21
38400;BME280;24180;42.676;23.320;2023-04-10T11:38:59;94707.41;;;15.26;65.04
38400;BME280;24180;42.676;23.320;2023-04-10T11:43:54;94705.88;;;15.09;71.14
38400;BME280;24180;42.676;23.320;2023-04-10T11:46:20;94689.31;;;15.25;69.45
38400;BME280;24180;42.676;23.320;2023-04-10T11:48:46;94695.69;;;17.44;59.63
38400;BME280;24180;42.676;23.320;2023-04-10T11:51:12;94640.31;;;19.18;50.70
38400;BME280;24180;42.676;23.320;2023-04-10T11:53:39;94698.31;;;18.14;49.51
38400;BME280;24180;42.676;23.320;2023-04-10T11:56:14;94706.22;;;17.29;51.58
38400;BME280;24180;42.676;23.320;2023-04-10T11:58:39;94703.78;;;16.92;53.20
38400;BME280;24180;42.676;23.320;2023-04-10T12:01:05;94679.94;;;15.99;56.68
38400;BME280;24180;42.676;23.320;2023-04-10T12:03:35;94697.47;;;15.75;59.64
38400;BME280;24180;42.676;23.320;2023-04-10T12:06:02;94706.75;;;15.78;60.44
38400;BME280;24180;42.676;23.320;2023-04-10T12:08:36;94688.78;;;15.60;60.04
38400;BME280;24180;42.676;23.320;2023-04-10T12:11:02;94692.44;;;15.51;60.93
38400;BME280;24180;42.676;23.320;2023-04-10T12:13:29;94677.50;;;14.91;63.10
38400;BME280;24180;42.676;23.320;2023-04-10T12:15:58;94700.44;;;14.57;67.63
38400;BME280;24180;42.676;23.320;2023-04-10T12:18:25;94698.56;;;14.27;72.56
38400;BME280;24180;42.676;23.320;2023-04-10T12:20:51;94691.47;;;13.72;81.55
38400;BME280;24180;42.676;23.320;2023-04-10T12:23:23;94734.22;;;12.71;100.00
38400;BME280;24180;42.676;23.320;2023-04-10T12:25:50;94706.09;;;11.73;100.00
38400;BME280;24180;42.676;23.320;2023-04-10T12:28:19;94732.19;;;11.18;100.00
38400;BME280;24180;42.676;23.320;2023-04-10T12:30:49;94732.34;;;10.72;100.00
38400;BME280;24180;42.676;23.320;2023-04-10T12:33:24;94741.75;;;10.46;100.00
38400;BME280;24180;42.676;23.320;2023-04-10T12:35:51;94694.19;;;10.19;100.00
38400;BME280;24180;42.676;23.320;2023-04-10T12:38:35;94735.91;;;10.44;100.00
38400;BME280;24180;42.676;23.320;2023-04-10T12:41:01;94739.66;;;10.12;100.00
38400;BME280;24180;42.676;23.320;2023-04-10T12:43:40;94729.00;;;9.69;100.00
38400;BME280;24180;42.676;23.320;2023-04-10T12:46:08;94728.66;;;9.25;100.00
38400;BME280;24180;42.676;23.320;2023-04-10T12:48:34;94669.34;;;8.76;100.00
38400;BME280;24180;42.676;23.320;2023-04-10T12:51:01;94719.78;;;9.28;100.00
38400;BME280;24180;42.676;23.320;2023-04-10T12:53:27;94712.72;;;9.39;100.00
38400;BME280;24180;42.676;23.320;2023-04-10T12:56:04;94688.72;;;9.76;100.00
38400;BME280;24180;42.676;23.320;2023-04-10T12:58:31;94686.09;;;10.32;100.00
38400;BME280;24180;42.676;23.320;2023-04-10T13:01:01;94703.47;;;10.94;100.00
38400;BME280;24180;42.676;23.320;2023-04-10T13:03:26;94685.00;;;11.33;100.00
38400;BME280;24180;42.676;23.320;2023-04-10T13:05:52;94676.78;;;11.55;100.00
38400;BME280;24180;42.676;23.320;2023-04-10T13:08:18;94679.09;;;12.09;100.00
38400;BME280;24180;42.676;23.320;2023-04-10T13:10:43;94701.56;;;12.27;100.00
38400;BME280;24180;42.676;23.320;2023-04-10T13:13:09;94690.88;;;12.30;100.00
38400;BME280;24180;42.676;23.320;2023-04-10T13:15:38;94671.94;;;12.45;100.00
38400;BME280;24180;42.676;23.320;2023-04-10T13:18:03;94679.03;;;12.01;100.00
38400;BME280;24180;42.676;23.320;2023-04-10T13:20:32;94698.75;;;11.86;100.00
38400;BME280;24180;42.676;23.320;2023-04-10T13:22:58;94695.97;;;11.88;100.00
38400;BME280;24180;42.676;23.320;2023-04-10T13:25:23;94689.09;;;12.04;100.00
38400;BME280;24180;42.676;23.320;2023-04-10T13:27:49;94682.63;;;12.34;100.00
38400;BME280;24180;42.676;23.320;2023-04-10T13:30:14;94655.94;;;12.24;100.00
38400;BME280;24180;42.676;23.320;2023-04-10T13:32:40;94648.34;;;12.23;100.00
38400;BME280;24180;42.676;23.320;2023-04-10T13:35:05;94680.13;;;12.66;100.00
38400;BME280;24180;42.676;23.320;2023-04-10T13:37:31;94680.91;;;12.51;100.00